SVA9090 OEJN-KPAE
Flight info
| Callsign | SVA9090 |
|---|---|
| Flight time | N/A |
| Altitude | 30000 |
| Route | MIGDA L677 WEJ M449 MUNRA L513 QTR01/N0501F290 M319 MOUAB/N0499F300 L53 TALMI Z85 ADLOD J10 NAT H14 MERVA N131 DOREN UA28 MUT UL621 BUK UM861 RAKUR/K0919F300 M856 LAROM/K0909F320 M856 DIGAM P156 ODESE M854 DUBIN/N0490F320 Y96 DOLAT DCT DIVAM DCT PENIV DCT LENSO DCT ETSON DCT BALAK DCT ABGUN/N0499F340 DCT 72N001E/M084F340 76N013W 78N037W 78N064W/N0496F340 75N085W/N0493F360 71N099W 67N108W DCT YZF DCT YZF J526 YQU/N0487F370 DCT YDC/N0489F380 DCT YDC J503 CASCD DCT TUNNL DEVYN2 |
| Aircraft | B77W/H-SDE1E2E3FGHIJ2J3J4J5M1RWXY/LB1D1 |
Departure
| Time | N/A |
|---|---|
| Airport | King Abdulaziz International Airport (OEJN) |
Arrival
| Time | 2026-04-25 14:15 |
|---|---|
| Airport | Seattle Paine Field International Airport (KPAE) |
| Time | Latitude | Longitude | Altitude | Speed | Heading |
|---|---|---|---|---|---|
| 2026-04-25 11:22 | 68.51914 | -105.07443 | 36713 ft | 450 kts | 219° |
| 2026-04-25 11:22 | 68.46941 | -105.17814 | 36705 ft | 450 kts | 219° |
| 2026-04-25 11:23 | 68.41996 | -105.28068 | 36704 ft | 450 kts | 219° |
| 2026-04-25 11:23 | 68.37012 | -105.38347 | 36702 ft | 450 kts | 219° |
| 2026-04-25 11:24 | 68.32023 | -105.48576 | 36698 ft | 450 kts | 219° |
| 2026-04-25 11:24 | 68.27022 | -105.58772 | 36692 ft | 450 kts | 219° |
| 2026-04-25 11:25 | 68.22024 | -105.68906 | 36694 ft | 450 kts | 219° |
| 2026-04-25 11:25 | 68.17013 | -105.79008 | 36690 ft | 450 kts | 219° |
| 2026-04-25 11:26 | 68.12004 | -105.89051 | 36689 ft | 450 kts | 219° |
| 2026-04-25 11:26 | 68.06983 | -105.99061 | 36685 ft | 450 kts | 218° |
| 2026-04-25 11:27 | 68.01956 | -106.09028 | 36683 ft | 450 kts | 218° |
| 2026-04-25 11:27 | 67.97776 | -106.17274 | 36688 ft | 450 kts | 218° |
| 2026-04-25 11:28 | 67.91885 | -106.28832 | 36678 ft | 450 kts | 218° |
| 2026-04-25 11:28 | 67.86839 | -106.38672 | 36679 ft | 450 kts | 218° |
| 2026-04-25 11:29 | 67.81788 | -106.48468 | 36673 ft | 450 kts | 218° |
| 2026-04-25 11:29 | 67.76723 | -106.58237 | 36682 ft | 450 kts | 218° |
| 2026-04-25 11:30 | 67.71657 | -106.67956 | 36681 ft | 451 kts | 218° |
| 2026-04-25 11:30 | 67.66578 | -106.77645 | 36674 ft | 451 kts | 218° |
| 2026-04-25 11:31 | 67.61531 | -106.87222 | 36673 ft | 451 kts | 217° |
| 2026-04-25 11:31 | 67.56441 | -106.96831 | 36677 ft | 451 kts | 217° |
| 2026-04-25 11:32 | 67.51345 | -107.06396 | 36674 ft | 451 kts | 217° |
| 2026-04-25 11:32 | 67.46236 | -107.15933 | 36677 ft | 451 kts | 217° |
| 2026-04-25 11:33 | 67.41123 | -107.25430 | 36676 ft | 452 kts | 217° |
| 2026-04-25 11:33 | 67.36000 | -107.34892 | 36674 ft | 452 kts | 217° |
| 2026-04-25 11:34 | 67.30865 | -107.44325 | 36668 ft | 452 kts | 217° |
| 2026-04-25 11:34 | 67.25722 | -107.53723 | 36669 ft | 453 kts | 217° |
| 2026-04-25 11:35 | 67.20572 | -107.63085 | 36677 ft | 453 kts | 217° |
| 2026-04-25 11:35 | 67.15419 | -107.72403 | 36682 ft | 453 kts | 217° |
| 2026-04-25 11:36 | 67.10258 | -107.81685 | 36681 ft | 453 kts | 216° |
| 2026-04-25 11:36 | 67.05084 | -107.90947 | 36677 ft | 453 kts | 216° |
| 2026-04-25 11:37 | 66.99906 | -108.00164 | 36679 ft | 453 kts | 216° |
| 2026-04-25 11:37 | 66.94692 | -108.09243 | 36681 ft | 454 kts | 216° |
| 2026-04-25 11:38 | 66.89452 | -108.18225 | 36679 ft | 454 kts | 215° |
| 2026-04-25 11:38 | 66.84202 | -108.27192 | 36673 ft | 455 kts | 215° |
| 2026-04-25 11:39 | 66.78946 | -108.36142 | 36678 ft | 455 kts | 215° |
| 2026-04-25 11:39 | 66.73686 | -108.45060 | 36680 ft | 456 kts | 215° |
| 2026-04-25 11:40 | 66.68440 | -108.53910 | 36687 ft | 456 kts | 215° |
| 2026-04-25 11:40 | 66.63154 | -108.62778 | 36695 ft | 457 kts | 215° |
| 2026-04-25 11:41 | 66.57859 | -108.71617 | 36698 ft | 457 kts | 215° |
| 2026-04-25 11:41 | 66.52551 | -108.80430 | 36706 ft | 457 kts | 215° |
| 2026-04-25 11:42 | 66.47237 | -108.89208 | 36709 ft | 458 kts | 214° |
| 2026-04-25 11:42 | 66.41909 | -108.97964 | 36717 ft | 458 kts | 214° |
| 2026-04-25 11:43 | 66.36574 | -109.06686 | 36724 ft | 459 kts | 214° |
| 2026-04-25 11:43 | 66.31227 | -109.15382 | 36726 ft | 459 kts | 214° |
| 2026-04-25 11:44 | 66.25869 | -109.24051 | 36723 ft | 460 kts | 214° |
| 2026-04-25 11:44 | 66.20501 | -109.32691 | 36721 ft | 460 kts | 214° |
| 2026-04-25 11:45 | 66.15126 | -109.41299 | 36724 ft | 460 kts | 214° |
| 2026-04-25 11:45 | 66.09744 | -109.49874 | 36719 ft | 460 kts | 214° |
| 2026-04-25 11:46 | 66.04356 | -109.58414 | 36721 ft | 461 kts | 214° |
| 2026-04-25 11:46 | 65.98959 | -109.66926 | 36720 ft | 461 kts | 214° |
| 2026-04-25 11:47 | 65.93554 | -109.75406 | 36721 ft | 461 kts | 214° |
| 2026-04-25 11:47 | 65.88139 | -109.83858 | 36723 ft | 462 kts | 214° |
| 2026-04-25 11:48 | 65.82749 | -109.92229 | 36722 ft | 462 kts | 213° |
| 2026-04-25 11:48 | 65.77278 | -110.00684 | 36722 ft | 463 kts | 213° |
| 2026-04-25 11:49 | 65.71860 | -110.09015 | 36722 ft | 464 kts | 213° |
| 2026-04-25 11:49 | 65.66394 | -110.17376 | 36722 ft | 465 kts | 213° |
| 2026-04-25 11:50 | 65.60921 | -110.25706 | 36713 ft | 465 kts | 213° |
| 2026-04-25 11:50 | 65.55433 | -110.34015 | 36724 ft | 466 kts | 213° |
| 2026-04-25 11:51 | 65.49935 | -110.42299 | 36716 ft | 466 kts | 213° |
| 2026-04-25 11:51 | 65.44421 | -110.50566 | 36721 ft | 467 kts | 213° |
| 2026-04-25 11:52 | 65.38903 | -110.58797 | 36718 ft | 467 kts | 213° |
| 2026-04-25 11:52 | 65.33375 | -110.67002 | 36715 ft | 468 kts | 213° |
| 2026-04-25 11:53 | 65.27836 | -110.75182 | 36709 ft | 468 kts | 212° |
| 2026-04-25 11:53 | 65.22281 | -110.83343 | 36710 ft | 469 kts | 212° |
| 2026-04-25 11:54 | 65.16712 | -110.91485 | 36710 ft | 470 kts | 212° |
| 2026-04-25 11:55 | 65.08341 | -111.03648 | 36699 ft | 471 kts | 212° |
| 2026-04-25 11:55 | 65.02747 | -111.11725 | 36697 ft | 471 kts | 212° |
| 2026-04-25 11:56 | 64.97135 | -111.19788 | 36695 ft | 472 kts | 212° |
| 2026-04-25 11:56 | 64.91514 | -111.27825 | 36690 ft | 473 kts | 212° |
| 2026-04-25 11:57 | 64.85876 | -111.35845 | 36692 ft | 474 kts | 212° |
| 2026-04-25 11:57 | 64.80226 | -111.43843 | 36687 ft | 474 kts | 212° |
| 2026-04-25 11:58 | 64.74567 | -111.51815 | 36688 ft | 475 kts | 212° |
| 2026-04-25 11:58 | 64.68896 | -111.59763 | 36685 ft | 476 kts | 212° |
| 2026-04-25 11:59 | 64.63209 | -111.67695 | 36687 ft | 476 kts | 212° |
| 2026-04-25 11:59 | 64.57512 | -111.75601 | 36681 ft | 477 kts | 211° |
| 2026-04-25 12:00 | 64.48950 | -111.87410 | 36675 ft | 478 kts | 211° |
| 2026-04-25 12:01 | 64.40367 | -111.99161 | 36668 ft | 478 kts | 211° |
| 2026-04-25 12:01 | 64.34628 | -112.06972 | 36670 ft | 479 kts | 211° |
| 2026-04-25 12:02 | 64.26002 | -112.18638 | 36669 ft | 480 kts | 211° |
| 2026-04-25 12:02 | 64.20269 | -112.26345 | 36659 ft | 481 kts | 211° |
| 2026-04-25 12:03 | 64.15425 | -112.32828 | 36654 ft | 481 kts | 211° |
| 2026-04-25 12:03 | 64.09629 | -112.40550 | 36648 ft | 482 kts | 211° |
| 2026-04-25 12:04 | 64.03820 | -112.48250 | 36646 ft | 483 kts | 211° |
| 2026-04-25 12:04 | 63.98002 | -112.55927 | 36643 ft | 484 kts | 211° |
| 2026-04-25 12:05 | 63.92172 | -112.63583 | 36640 ft | 484 kts | 211° |
| 2026-04-25 12:05 | 63.86328 | -112.71219 | 36637 ft | 485 kts | 211° |
| 2026-04-25 12:06 | 63.80469 | -112.78837 | 36631 ft | 486 kts | 211° |
| 2026-04-25 12:06 | 63.74600 | -112.86431 | 36629 ft | 487 kts | 211° |
| 2026-04-25 12:07 | 63.68715 | -112.94010 | 36626 ft | 487 kts | 210° |
| 2026-04-25 12:07 | 63.62814 | -113.01573 | 36628 ft | 488 kts | 210° |
| 2026-04-25 12:08 | 63.56909 | -113.09105 | 36616 ft | 489 kts | 210° |
| 2026-04-25 12:08 | 63.50986 | -113.16623 | 36610 ft | 489 kts | 210° |
| 2026-04-25 12:09 | 63.45049 | -113.24122 | 36608 ft | 490 kts | 210° |
| 2026-04-25 12:09 | 63.39142 | -113.31548 | 36599 ft | 491 kts | 210° |
| 2026-04-25 12:10 | 63.33144 | -113.39053 | 36597 ft | 491 kts | 210° |
| 2026-04-25 12:10 | 63.27178 | -113.46481 | 36596 ft | 492 kts | 210° |
| 2026-04-25 12:11 | 63.21239 | -113.53840 | 36590 ft | 492 kts | 210° |
| 2026-04-25 12:11 | 63.15256 | -113.61220 | 36587 ft | 493 kts | 210° |
| 2026-04-25 12:12 | 63.09261 | -113.68579 | 36578 ft | 493 kts | 210° |
| 2026-04-25 12:12 | 63.03259 | -113.75911 | 36574 ft | 494 kts | 210° |
| 2026-04-25 12:13 | 62.97249 | -113.83218 | 36578 ft | 494 kts | 210° |
| 2026-04-25 12:13 | 62.91226 | -113.90507 | 36572 ft | 494 kts | 210° |
| 2026-04-25 12:14 | 62.85193 | -113.97773 | 36567 ft | 495 kts | 209° |
| 2026-04-25 12:14 | 62.79148 | -114.05019 | 36559 ft | 495 kts | 209° |
| 2026-04-25 12:15 | 62.73099 | -114.12236 | 36546 ft | 496 kts | 209° |
| 2026-04-25 12:15 | 62.67030 | -114.19444 | 36537 ft | 497 kts | 209° |
| 2026-04-25 12:16 | 62.60964 | -114.26614 | 36518 ft | 497 kts | 209° |
| 2026-04-25 12:16 | 62.54945 | -114.33696 | 36504 ft | 488 kts | 209° |
| 2026-04-25 12:17 | 62.48907 | -114.40773 | 36520 ft | 499 kts | 209° |
| 2026-04-25 12:17 | 62.42690 | -114.47634 | 36507 ft | 503 kts | 203° |
| 2026-04-25 12:18 | 62.36209 | -114.53291 | 36512 ft | 503 kts | 202° |
| 2026-04-25 12:18 | 62.29705 | -114.58871 | 36513 ft | 503 kts | 202° |
| 2026-04-25 12:19 | 62.19984 | -114.67293 | 36520 ft | 502 kts | 202° |
| 2026-04-25 12:20 | 62.13514 | -114.72905 | 36531 ft | 502 kts | 202° |
| 2026-04-25 12:20 | 62.07038 | -114.78498 | 36521 ft | 502 kts | 202° |
| 2026-04-25 12:21 | 62.00564 | -114.84059 | 36518 ft | 502 kts | 202° |
| 2026-04-25 12:21 | 61.94077 | -114.89604 | 36523 ft | 503 kts | 202° |
| 2026-04-25 12:22 | 61.87584 | -114.95128 | 36514 ft | 503 kts | 202° |
| 2026-04-25 12:22 | 61.81078 | -115.00638 | 36517 ft | 504 kts | 202° |
| 2026-04-25 12:23 | 61.74565 | -115.06129 | 36510 ft | 504 kts | 202° |
| 2026-04-25 12:23 | 61.68036 | -115.11608 | 36506 ft | 505 kts | 202° |
| 2026-04-25 12:24 | 61.61503 | -115.17065 | 36500 ft | 506 kts | 202° |
| 2026-04-25 12:24 | 61.54957 | -115.22509 | 36497 ft | 506 kts | 202° |
| 2026-04-25 12:25 | 61.48394 | -115.27943 | 36500 ft | 507 kts | 202° |
| 2026-04-25 12:25 | 61.41831 | -115.33351 | 36487 ft | 507 kts | 202° |
| 2026-04-25 12:26 | 61.35255 | -115.38746 | 36493 ft | 508 kts | 202° |
| 2026-04-25 12:26 | 61.28680 | -115.44116 | 36489 ft | 508 kts | 202° |
| 2026-04-25 12:27 | 61.22092 | -115.49471 | 36486 ft | 508 kts | 202° |
| 2026-04-25 12:27 | 61.15499 | -115.54807 | 36486 ft | 509 kts | 202° |
| 2026-04-25 12:28 | 61.08896 | -115.60128 | 36464 ft | 509 kts | 201° |
| 2026-04-25 12:28 | 61.02286 | -115.65430 | 36460 ft | 510 kts | 201° |
| 2026-04-25 12:29 | 60.95669 | -115.70715 | 36450 ft | 510 kts | 201° |
| 2026-04-25 12:29 | 60.89091 | -115.75947 | 36453 ft | 511 kts | 201° |
| 2026-04-25 12:30 | 60.82441 | -115.81096 | 36450 ft | 511 kts | 198° |
| 2026-04-25 12:30 | 60.75619 | -115.85238 | 36455 ft | 512 kts | 196° |
| 2026-04-25 12:31 | 60.68771 | -115.89279 | 36465 ft | 513 kts | 196° |
| 2026-04-25 12:31 | 60.61923 | -115.93357 | 36468 ft | 513 kts | 197° |
| 2026-04-25 12:32 | 60.55067 | -115.97455 | 36476 ft | 513 kts | 197° |
| 2026-04-25 12:32 | 60.48208 | -116.01543 | 36477 ft | 514 kts | 196° |
| 2026-04-25 12:33 | 60.41343 | -116.05612 | 36472 ft | 514 kts | 196° |
| 2026-04-25 12:33 | 60.34475 | -116.09664 | 36473 ft | 514 kts | 196° |
| 2026-04-25 12:34 | 60.27608 | -116.13697 | 36468 ft | 514 kts | 196° |
| 2026-04-25 12:34 | 60.20732 | -116.17718 | 36466 ft | 515 kts | 196° |
| 2026-04-25 12:35 | 60.13858 | -116.21722 | 36464 ft | 515 kts | 196° |
| 2026-04-25 12:35 | 60.06969 | -116.25717 | 36462 ft | 515 kts | 196° |
| 2026-04-25 12:36 | 60.00078 | -116.29688 | 36461 ft | 515 kts | 196° |
| 2026-04-25 12:36 | 59.93188 | -116.33639 | 36452 ft | 516 kts | 196° |
| 2026-04-25 12:37 | 59.86276 | -116.37589 | 36453 ft | 516 kts | 196° |
| 2026-04-25 12:37 | 59.79414 | -116.41494 | 36451 ft | 517 kts | 196° |
| 2026-04-25 12:38 | 59.72455 | -116.45437 | 36443 ft | 517 kts | 196° |
| 2026-04-25 12:38 | 59.65579 | -116.49317 | 36440 ft | 517 kts | 196° |
| 2026-04-25 12:39 | 59.58654 | -116.53208 | 36437 ft | 517 kts | 195° |
| 2026-04-25 12:39 | 59.51728 | -116.57082 | 36435 ft | 518 kts | 195° |
| 2026-04-25 12:40 | 59.44788 | -116.60949 | 36426 ft | 518 kts | 195° |
| 2026-04-25 12:40 | 59.37852 | -116.64798 | 36420 ft | 518 kts | 195° |
| 2026-04-25 12:41 | 59.30912 | -116.68630 | 36416 ft | 518 kts | 195° |
| 2026-04-25 12:41 | 59.23963 | -116.72446 | 36414 ft | 518 kts | 195° |
| 2026-04-25 12:42 | 59.17020 | -116.76246 | 36406 ft | 519 kts | 195° |
| 2026-04-25 12:42 | 59.10063 | -116.80039 | 36410 ft | 519 kts | 195° |
| 2026-04-25 12:43 | 59.03111 | -116.83814 | 36400 ft | 519 kts | 195° |
| 2026-04-25 12:43 | 58.92674 | -116.89450 | 36392 ft | 519 kts | 195° |
| 2026-04-25 12:44 | 58.85718 | -116.93187 | 36370 ft | 520 kts | 195° |
| 2026-04-25 12:45 | 58.75257 | -116.98779 | 36340 ft | 520 kts | 195° |
| 2026-04-25 12:45 | 58.64783 | -117.04342 | 36326 ft | 521 kts | 195° |
| 2026-04-25 12:46 | 58.57793 | -117.08038 | 36324 ft | 521 kts | 195° |
| 2026-04-25 12:46 | 58.50836 | -117.11901 | 36329 ft | 522 kts | 198° |
| 2026-04-25 12:47 | 58.45093 | -117.15548 | 36340 ft | 522 kts | 199° |
| 2026-04-25 12:47 | 58.37098 | -117.20722 | 36357 ft | 522 kts | 198° |
| 2026-04-25 12:48 | 58.31410 | -117.24319 | 36368 ft | 522 kts | 198° |
| 2026-04-25 12:48 | 58.24424 | -117.28660 | 36373 ft | 522 kts | 198° |
| 2026-04-25 12:49 | 58.17513 | -117.32919 | 36370 ft | 522 kts | 198° |
| 2026-04-25 12:49 | 58.10611 | -117.37158 | 36375 ft | 522 kts | 198° |
| 2026-04-25 12:50 | 58.03701 | -117.41391 | 36378 ft | 522 kts | 198° |
| 2026-04-25 12:50 | 57.96788 | -117.45610 | 36368 ft | 522 kts | 198° |
| 2026-04-25 12:51 | 57.89875 | -117.49812 | 36372 ft | 522 kts | 198° |
| 2026-04-25 12:51 | 57.82974 | -117.53989 | 36369 ft | 522 kts | 198° |
| 2026-04-25 12:52 | 57.76052 | -117.58162 | 36365 ft | 523 kts | 198° |
| 2026-04-25 12:52 | 57.69158 | -117.62301 | 36374 ft | 523 kts | 198° |
| 2026-04-25 12:53 | 57.62182 | -117.66473 | 36370 ft | 523 kts | 197° |
| 2026-04-25 12:53 | 57.55291 | -117.70578 | 36372 ft | 524 kts | 197° |
| 2026-04-25 12:54 | 57.48346 | -117.74698 | 36370 ft | 524 kts | 197° |
| 2026-04-25 12:54 | 57.41393 | -117.78807 | 36368 ft | 524 kts | 197° |
| 2026-04-25 12:55 | 57.35570 | -117.82234 | 36374 ft | 524 kts | 197° |
| 2026-04-25 12:55 | 57.27482 | -117.86977 | 36376 ft | 524 kts | 197° |
| 2026-04-25 12:56 | 57.20526 | -117.91039 | 36379 ft | 524 kts | 197° |
| 2026-04-25 12:56 | 57.13574 | -117.95082 | 36382 ft | 524 kts | 197° |
| 2026-04-25 12:57 | 57.06606 | -117.99118 | 36374 ft | 525 kts | 197° |
| 2026-04-25 12:57 | 56.99642 | -118.03137 | 36358 ft | 525 kts | 197° |
| 2026-04-25 12:58 | 56.92677 | -118.07140 | 36369 ft | 525 kts | 197° |
| 2026-04-25 12:58 | 56.85711 | -118.11127 | 36364 ft | 525 kts | 197° |
| 2026-04-25 12:59 | 56.78733 | -118.15107 | 36348 ft | 525 kts | 197° |
| 2026-04-25 12:59 | 56.71806 | -118.19042 | 36371 ft | 525 kts | 197° |
| 2026-04-25 13:00 | 56.65965 | -118.22348 | 36336 ft | 525 kts | 197° |
| 2026-04-25 13:00 | 56.57802 | -118.26951 | 36347 ft | 525 kts | 197° |
| 2026-04-25 13:01 | 56.50824 | -118.30869 | 36329 ft | 525 kts | 197° |
| 2026-04-25 13:01 | 56.43888 | -118.34748 | 36349 ft | 525 kts | 197° |
| 2026-04-25 13:02 | 56.36905 | -118.38639 | 36326 ft | 525 kts | 197° |
| 2026-04-25 13:02 | 56.29917 | -118.42518 | 36329 ft | 525 kts | 197° |
| 2026-04-25 13:03 | 56.22930 | -118.46381 | 36333 ft | 525 kts | 197° |
| 2026-04-25 13:03 | 56.15948 | -118.50227 | 36331 ft | 525 kts | 197° |
| 2026-04-25 13:04 | 56.08958 | -118.54062 | 36329 ft | 525 kts | 197° |
| 2026-04-25 13:04 | 56.01968 | -118.57883 | 36330 ft | 525 kts | 197° |
| 2026-04-25 13:05 | 55.94973 | -118.61693 | 36327 ft | 526 kts | 197° |
| 2026-04-25 13:05 | 55.87981 | -118.65485 | 36324 ft | 526 kts | 197° |
| 2026-04-25 13:06 | 55.80985 | -118.69267 | 36328 ft | 526 kts | 197° |
| 2026-04-25 13:06 | 55.73975 | -118.73042 | 36322 ft | 526 kts | 197° |
| 2026-04-25 13:07 | 55.66959 | -118.76806 | 36319 ft | 527 kts | 196° |
| 2026-04-25 13:07 | 55.59943 | -118.80556 | 36318 ft | 527 kts | 196° |
| 2026-04-25 13:08 | 55.52924 | -118.84293 | 36323 ft | 527 kts | 196° |
| 2026-04-25 13:08 | 55.45908 | -118.88015 | 36291 ft | 527 kts | 196° |
| 2026-04-25 13:09 | 55.38888 | -118.91725 | 36273 ft | 526 kts | 196° |
| 2026-04-25 13:09 | 55.31874 | -118.95419 | 36241 ft | 526 kts | 196° |
| 2026-04-25 13:10 | 55.24859 | -118.99100 | 36223 ft | 526 kts | 196° |
| 2026-04-25 13:10 | 55.17838 | -119.02706 | 36222 ft | 526 kts | 193° |
| 2026-04-25 13:11 | 55.10662 | -119.04960 | 36238 ft | 524 kts | 187° |
| 2026-04-25 13:11 | 55.03437 | -119.06757 | 36254 ft | 525 kts | 187° |
| 2026-04-25 13:12 | 54.96203 | -119.08588 | 36279 ft | 525 kts | 187° |
| 2026-04-25 13:12 | 54.90197 | -119.10147 | 36298 ft | 525 kts | 187° |
| 2026-04-25 13:13 | 54.81749 | -119.12360 | 36318 ft | 525 kts | 187° |
| 2026-04-25 13:13 | 54.74523 | -119.14246 | 36316 ft | 525 kts | 187° |
| 2026-04-25 13:14 | 54.67306 | -119.16118 | 36319 ft | 525 kts | 187° |
| 2026-04-25 13:14 | 54.60140 | -119.17969 | 36320 ft | 524 kts | 187° |
| 2026-04-25 13:15 | 54.52869 | -119.19840 | 36330 ft | 524 kts | 187° |
| 2026-04-25 13:15 | 54.45713 | -119.21674 | 36349 ft | 523 kts | 187° |
| 2026-04-25 13:16 | 54.38518 | -119.23513 | 36354 ft | 523 kts | 187° |
| 2026-04-25 13:16 | 54.31324 | -119.25345 | 36359 ft | 522 kts | 187° |
| 2026-04-25 13:17 | 54.24141 | -119.27168 | 36363 ft | 522 kts | 187° |
| 2026-04-25 13:17 | 54.16952 | -119.28986 | 36364 ft | 522 kts | 187° |
| 2026-04-25 13:18 | 54.09773 | -119.30794 | 36365 ft | 521 kts | 187° |
| 2026-04-25 13:18 | 54.02593 | -119.32597 | 36353 ft | 522 kts | 187° |
| 2026-04-25 13:19 | 53.95417 | -119.34392 | 36341 ft | 521 kts | 187° |
| 2026-04-25 13:19 | 53.90621 | -119.35589 | 36337 ft | 521 kts | 187° |
| 2026-04-25 13:20 | 53.81074 | -119.37962 | 36314 ft | 521 kts | 187° |
| 2026-04-25 13:20 | 53.73898 | -119.39738 | 36294 ft | 521 kts | 187° |
| 2026-04-25 13:21 | 53.66729 | -119.41508 | 36288 ft | 521 kts | 187° |
| 2026-04-25 13:21 | 53.59558 | -119.43272 | 36293 ft | 521 kts | 187° |
| 2026-04-25 13:22 | 53.52390 | -119.45029 | 36271 ft | 521 kts | 187° |
| 2026-04-25 13:23 | 53.41644 | -119.47650 | 36275 ft | 520 kts | 187° |
| 2026-04-25 13:23 | 53.34488 | -119.49389 | 36273 ft | 520 kts | 187° |
| 2026-04-25 13:24 | 53.27332 | -119.51122 | 36273 ft | 520 kts | 187° |
| 2026-04-25 13:24 | 53.20167 | -119.52852 | 36265 ft | 520 kts | 187° |
| 2026-04-25 13:25 | 53.13009 | -119.54573 | 36265 ft | 519 kts | 187° |
| 2026-04-25 13:25 | 53.05857 | -119.56288 | 36264 ft | 519 kts | 187° |
| 2026-04-25 13:26 | 52.98765 | -119.57982 | 36265 ft | 518 kts | 187° |
| 2026-04-25 13:26 | 52.91620 | -119.59682 | 36253 ft | 518 kts | 187° |
| 2026-04-25 13:27 | 52.84489 | -119.61376 | 36251 ft | 517 kts | 187° |
| 2026-04-25 13:27 | 52.77356 | -119.63064 | 36236 ft | 517 kts | 187° |
| 2026-04-25 13:28 | 52.70239 | -119.64742 | 36242 ft | 517 kts | 187° |
| 2026-04-25 13:28 | 52.63110 | -119.66417 | 36223 ft | 517 kts | 187° |
| 2026-04-25 13:29 | 52.55993 | -119.68083 | 36216 ft | 517 kts | 187° |
| 2026-04-25 13:29 | 52.48872 | -119.69746 | 36220 ft | 516 kts | 187° |
| 2026-04-25 13:30 | 52.38204 | -119.72226 | 36201 ft | 516 kts | 187° |
| 2026-04-25 13:31 | 52.27533 | -119.74696 | 36176 ft | 516 kts | 187° |
| 2026-04-25 13:31 | 52.20422 | -119.76334 | 36179 ft | 516 kts | 187° |
| 2026-04-25 13:32 | 52.13316 | -119.77966 | 36159 ft | 515 kts | 187° |
| 2026-04-25 13:32 | 52.06268 | -119.79580 | 36171 ft | 515 kts | 187° |
| 2026-04-25 13:33 | 51.99172 | -119.81200 | 36156 ft | 515 kts | 187° |
| 2026-04-25 13:33 | 51.92084 | -119.82812 | 36157 ft | 514 kts | 187° |
| 2026-04-25 13:34 | 51.84998 | -119.84419 | 36157 ft | 514 kts | 187° |
| 2026-04-25 13:34 | 51.77920 | -119.86020 | 36155 ft | 513 kts | 187° |
| 2026-04-25 13:35 | 51.70849 | -119.87613 | 36155 ft | 513 kts | 187° |
| 2026-04-25 13:35 | 51.64979 | -119.88932 | 36159 ft | 512 kts | 187° |
| 2026-04-25 13:36 | 51.57925 | -119.90512 | 36158 ft | 512 kts | 187° |
| 2026-04-25 13:36 | 51.50869 | -119.92088 | 36154 ft | 512 kts | 187° |
| 2026-04-25 13:37 | 51.43771 | -119.93668 | 36165 ft | 512 kts | 187° |
| 2026-04-25 13:37 | 51.36771 | -119.95222 | 36164 ft | 512 kts | 187° |
| 2026-04-25 13:38 | 51.29720 | -119.96782 | 36165 ft | 511 kts | 187° |
| 2026-04-25 13:38 | 51.22675 | -119.98336 | 36163 ft | 511 kts | 187° |
| 2026-04-25 13:39 | 51.15623 | -119.99887 | 36166 ft | 512 kts | 187° |
| 2026-04-25 13:39 | 51.08567 | -120.01433 | 36153 ft | 512 kts | 187° |
| 2026-04-25 13:40 | 51.01519 | -120.02974 | 36165 ft | 511 kts | 187° |
| 2026-04-25 13:40 | 50.94466 | -120.04510 | 36166 ft | 511 kts | 187° |
| 2026-04-25 13:41 | 50.87419 | -120.06041 | 36158 ft | 511 kts | 187° |
| 2026-04-25 13:41 | 50.80374 | -120.07566 | 36159 ft | 511 kts | 187° |
| 2026-04-25 13:42 | 50.73454 | -120.09060 | 36146 ft | 510 kts | 187° |
| 2026-04-25 13:42 | 50.66356 | -120.10588 | 36148 ft | 509 kts | 187° |
| 2026-04-25 13:43 | 50.59345 | -120.12093 | 36151 ft | 509 kts | 187° |
| 2026-04-25 13:43 | 50.52334 | -120.13593 | 36150 ft | 508 kts | 187° |
| 2026-04-25 13:44 | 50.45333 | -120.15086 | 36151 ft | 507 kts | 187° |
| 2026-04-25 13:44 | 50.38348 | -120.16572 | 36152 ft | 507 kts | 187° |
| 2026-04-25 13:45 | 50.31359 | -120.18054 | 36143 ft | 506 kts | 187° |
| 2026-04-25 13:45 | 50.24377 | -120.19530 | 36137 ft | 506 kts | 187° |
| 2026-04-25 13:46 | 50.17394 | -120.21002 | 36133 ft | 506 kts | 187° |
| 2026-04-25 13:46 | 50.10416 | -120.22469 | 36139 ft | 507 kts | 187° |
| 2026-04-25 13:47 | 50.03418 | -120.23935 | 36132 ft | 508 kts | 187° |
| 2026-04-25 13:47 | 49.96460 | -120.25389 | 36133 ft | 508 kts | 187° |
| 2026-04-25 13:48 | 49.89455 | -120.26848 | 36124 ft | 508 kts | 187° |
| 2026-04-25 13:48 | 49.82443 | -120.28305 | 36125 ft | 508 kts | 187° |
| 2026-04-25 13:49 | 49.75432 | -120.29757 | 36116 ft | 508 kts | 187° |
| 2026-04-25 13:49 | 49.68427 | -120.31204 | 36116 ft | 507 kts | 187° |
| 2026-04-25 13:50 | 49.61432 | -120.32644 | 36109 ft | 507 kts | 187° |
| 2026-04-25 13:50 | 49.54449 | -120.34078 | 36103 ft | 506 kts | 187° |
| 2026-04-25 13:51 | 49.47475 | -120.35506 | 36103 ft | 505 kts | 187° |
| 2026-04-25 13:51 | 49.40510 | -120.36929 | 36102 ft | 504 kts | 187° |
| 2026-04-25 13:52 | 49.33630 | -120.38911 | 36102 ft | 504 kts | 198° |
| 2026-04-25 13:52 | 49.27256 | -120.43348 | 36100 ft | 504 kts | 213° |
| 2026-04-25 13:52 | 49.24576 | -120.46750 | 36091 ft | 500 kts | 230° |
| 2026-04-25 13:53 | 49.22416 | -120.50909 | 36120 ft | 499 kts | 233° |
| 2026-04-25 13:53 | 49.17599 | -120.58581 | 36096 ft | 502 kts | 219° |
| 2026-04-25 13:54 | 49.11877 | -120.64607 | 36109 ft | 504 kts | 212° |
| 2026-04-25 13:54 | 49.05968 | -120.70386 | 36104 ft | 505 kts | 214° |
| 2026-04-25 13:55 | 49.00189 | -120.76527 | 36090 ft | 507 kts | 216° |
| 2026-04-25 13:55 | 48.94369 | -120.82591 | 36086 ft | 508 kts | 213° |
| 2026-04-25 13:56 | 48.88470 | -120.88510 | 36079 ft | 508 kts | 214° |
| 2026-04-25 13:56 | 48.82613 | -120.94495 | 36081 ft | 508 kts | 214° |
| 2026-04-25 13:57 | 48.76732 | -121.00433 | 36068 ft | 508 kts | 214° |
| 2026-04-25 13:57 | 48.70846 | -121.06338 | 36086 ft | 508 kts | 214° |
| 2026-04-25 13:58 | 48.64954 | -121.12246 | 36071 ft | 508 kts | 214° |
| 2026-04-25 13:58 | 48.58799 | -121.17315 | 35917 ft | 500 kts | 198° |
| 2026-04-25 13:58 | 48.55461 | -121.18632 | 35543 ft | 492 kts | 189° |
| 2026-04-25 13:59 | 48.52058 | -121.19166 | 34779 ft | 492 kts | 178° |
| 2026-04-25 13:59 | 48.48621 | -121.19040 | 33850 ft | 497 kts | 176° |
| 2026-04-25 13:59 | 48.45163 | -121.18843 | 32857 ft | 500 kts | 176° |
| 2026-04-25 13:59 | 48.41686 | -121.18653 | 32012 ft | 499 kts | 176° |
| 2026-04-25 14:00 | 48.38221 | -121.18496 | 31230 ft | 496 kts | 176° |
| 2026-04-25 14:00 | 48.34825 | -121.18370 | 30511 ft | 493 kts | 176° |
| 2026-04-25 14:00 | 48.31379 | -121.18263 | 29899 ft | 486 kts | 176° |
| 2026-04-25 14:00 | 48.28023 | -121.18166 | 29235 ft | 479 kts | 176° |
| 2026-04-25 14:01 | 48.24756 | -121.18073 | 28506 ft | 474 kts | 176° |
| 2026-04-25 14:01 | 48.21422 | -121.17975 | 27772 ft | 471 kts | 176° |
| 2026-04-25 14:01 | 48.18160 | -121.17878 | 27060 ft | 467 kts | 177° |
| 2026-04-25 14:01 | 48.14920 | -121.17779 | 26382 ft | 464 kts | 177° |
| 2026-04-25 14:02 | 48.11747 | -121.17683 | 25746 ft | 460 kts | 177° |
| 2026-04-25 14:02 | 48.08591 | -121.17980 | 24956 ft | 458 kts | 191° |
| 2026-04-25 14:02 | 48.05629 | -121.19745 | 24195 ft | 461 kts | 211° |
| 2026-04-25 14:02 | 48.04733 | -121.20641 | 23980 ft | 460 kts | 217° |
| 2026-04-25 14:03 | 48.01359 | -121.26593 | 22985 ft | 449 kts | 244° |
| 2026-04-25 14:03 | 48.00258 | -121.30900 | 22413 ft | 441 kts | 257° |
| 2026-04-25 14:03 | 47.99893 | -121.35386 | 21807 ft | 431 kts | 274° |
| 2026-04-25 14:03 | 48.00159 | -121.39761 | 21560 ft | 416 kts | 279° |
| 2026-04-25 14:04 | 48.00460 | -121.43981 | 21375 ft | 403 kts | 278° |
| 2026-04-25 14:04 | 48.00713 | -121.48141 | 20852 ft | 401 kts | 277° |
| 2026-04-25 14:04 | 48.00932 | -121.52294 | 20249 ft | 401 kts | 277° |
| 2026-04-25 14:04 | 48.01070 | -121.56422 | 19578 ft | 397 kts | 270° |
| 2026-04-25 14:05 | 48.00545 | -121.60509 | 18888 ft | 405 kts | 256° |
| 2026-04-25 14:05 | 47.99757 | -121.64548 | 18259 ft | 405 kts | 257° |
| 2026-04-25 14:05 | 47.99052 | -121.68570 | 17497 ft | 395 kts | 259° |
| 2026-04-25 14:05 | 47.98442 | -121.72536 | 16412 ft | 389 kts | 260° |
| 2026-04-25 14:06 | 47.97859 | -121.76458 | 15336 ft | 385 kts | 260° |
| 2026-04-25 14:06 | 47.97274 | -121.80332 | 14326 ft | 380 kts | 260° |
| 2026-04-25 14:06 | 47.96749 | -121.84153 | 13311 ft | 372 kts | 265° |
| 2026-04-25 14:06 | 47.96623 | -121.87951 | 12380 ft | 358 kts | 273° |
| 2026-04-25 14:07 | 47.96687 | -121.91509 | 12012 ft | 328 kts | 275° |
| 2026-04-25 14:07 | 47.96759 | -121.94771 | 11707 ft | 302 kts | 274° |
| 2026-04-25 14:07 | 47.96802 | -121.97811 | 11279 ft | 285 kts | 274° |
| 2026-04-25 14:07 | 47.96821 | -122.00719 | 10710 ft | 276 kts | 273° |
| 2026-04-25 14:08 | 47.96825 | -122.03527 | 10252 ft | 265 kts | 273° |
| 2026-04-25 14:08 | 47.96822 | -122.06205 | 9885 ft | 251 kts | 273° |
| 2026-04-25 14:08 | 47.96818 | -122.08726 | 9424 ft | 241 kts | 273° |
| 2026-04-25 14:08 | 47.96815 | -122.11193 | 8888 ft | 236 kts | 273° |
| 2026-04-25 14:09 | 47.97013 | -122.13564 | 8235 ft | 228 kts | 297° |
| 2026-04-25 14:09 | 47.97972 | -122.15360 | 7521 ft | 221 kts | 329° |
| 2026-04-25 14:09 | 47.99381 | -122.16222 | 6906 ft | 220 kts | 352° |
| 2026-04-25 14:09 | 47.99895 | -122.16318 | 6741 ft | 220 kts | 356° |
| 2026-04-25 14:10 | 48.01929 | -122.16392 | 6100 ft | 218 kts | 0° |
| 2026-04-25 14:10 | 48.03924 | -122.16415 | 5489 ft | 215 kts | 0° |
| 2026-04-25 14:10 | 48.05409 | -122.16447 | 5074 ft | 212 kts | 355° |
| 2026-04-25 14:10 | 48.06779 | -122.17208 | 4767 ft | 214 kts | 321° |
| 2026-04-25 14:11 | 48.07604 | -122.19047 | 4567 ft | 220 kts | 287° |
| 2026-04-25 14:11 | 48.07694 | -122.21361 | 4398 ft | 227 kts | 268° |
| 2026-04-25 14:11 | 48.07531 | -122.23737 | 4189 ft | 232 kts | 265° |
| 2026-04-25 14:11 | 48.07269 | -122.26097 | 3970 ft | 229 kts | 251° |
| 2026-04-25 14:12 | 48.06350 | -122.27925 | 3972 ft | 218 kts | 214° |
| 2026-04-25 14:12 | 48.04968 | -122.28632 | 3861 ft | 203 kts | 184° |
| 2026-04-25 14:12 | 48.03593 | -122.28793 | 3882 ft | 197 kts | 181° |
| 2026-04-25 14:12 | 48.02237 | -122.28817 | 3676 ft | 192 kts | 178° |
| 2026-04-25 14:13 | 48.00914 | -122.28784 | 3253 ft | 188 kts | 178° |
| 2026-04-25 14:13 | 47.99627 | -122.28752 | 2793 ft | 182 kts | 178° |
| 2026-04-25 14:13 | 47.98405 | -122.28725 | 2425 ft | 170 kts | 179° |
| 2026-04-25 14:13 | 47.97254 | -122.28699 | 2071 ft | 160 kts | 179° |
| 2026-04-25 14:14 | 47.96181 | -122.28672 | 1639 ft | 149 kts | 179° |
| 2026-04-25 14:14 | 47.95161 | -122.28646 | 1293 ft | 147 kts | 178° |
| 2026-04-25 14:14 | 47.94133 | -122.28629 | 1010 ft | 147 kts | 177° |
| 2026-04-25 14:14 | 47.93142 | -122.28613 | 808 ft | 143 kts | 176° |
| 2026-04-25 14:15 | 47.92131 | -122.28591 | 629 ft | 143 kts | 175° |
| 2026-04-25 14:15 | 47.91797 | -122.28584 | 586 ft | 143 kts | 175° |
| 2026-04-25 14:15 | 47.90433 | -122.28549 | 572 ft | 82 kts | 179° |
| 2026-04-25 14:15 | 47.90026 | -122.28539 | 578 ft | 32 kts | 179° |
| 2026-04-25 14:16 | 47.89843 | -122.28535 | 574 ft | 14 kts | 179° |
| 2026-04-25 14:16 | 47.89796 | -122.28487 | 576 ft | 9 kts | 104° |
| 2026-04-25 14:16 | 47.89794 | -122.28396 | 578 ft | 9 kts | 89° |
| 2026-04-25 14:16 | 47.89827 | -122.28332 | 575 ft | 9 kts | 21° |
| 2026-04-25 14:17 | 47.89889 | -122.28319 | 574 ft | 9 kts | 3° |
| 2026-04-25 14:17 | 47.89951 | -122.28319 | 576 ft | 9 kts | 358° |
| 2026-04-25 14:17 | 47.90015 | -122.28321 | 575 ft | 10 kts | 359° |
| 2026-04-25 14:17 | 47.90093 | -122.28324 | 575 ft | 13 kts | 358° |
| 2026-04-25 14:18 | 47.90197 | -122.28327 | 573 ft | 17 kts | 359° |
| 2026-04-25 14:18 | 47.90327 | -122.28329 | 576 ft | 20 kts | 359° |
| 2026-04-25 14:18 | 47.90477 | -122.28332 | 577 ft | 23 kts | 360° |
| 2026-04-25 14:18 | 47.90646 | -122.28335 | 573 ft | 25 kts | 359° |
| 2026-04-25 14:19 | 47.90818 | -122.28340 | 576 ft | 25 kts | 359° |
| 2026-04-25 14:19 | 47.90995 | -122.28345 | 575 ft | 25 kts | 358° |
| 2026-04-25 14:19 | 47.91147 | -122.28347 | 576 ft | 17 kts | 0° |
| 2026-04-25 14:19 | 47.91248 | -122.28348 | 574 ft | 10 kts | 359° |
| 2026-04-25 14:20 | 47.91287 | -122.28288 | 579 ft | 10 kts | 81° |
| 2026-04-25 14:20 | 47.91289 | -122.28255 | 577 ft | 10 kts | 86° |
| 2026-04-25 14:20 | 47.91299 | -122.28089 | 575 ft | 10 kts | 58° |
| 2026-04-25 14:20 | 47.91362 | -122.28052 | 578 ft | 10 kts | 2° |
| 2026-04-25 14:21 | 47.91435 | -122.28054 | 576 ft | 11 kts | 355° |
| 2026-04-25 14:21 | 47.91510 | -122.28057 | 573 ft | 11 kts | 359° |
| 2026-04-25 14:21 | 47.91590 | -122.28050 | 573 ft | 12 kts | 5° |
| 2026-04-25 14:21 | 47.91672 | -122.28049 | 577 ft | 12 kts | 359° |
| 2026-04-25 14:22 | 47.91755 | -122.28051 | 577 ft | 12 kts | 359° |
| 2026-04-25 14:22 | 47.91838 | -122.28049 | 573 ft | 12 kts | 2° |
| 2026-04-25 14:22 | 47.91922 | -122.28048 | 576 ft | 12 kts | 0° |
| 2026-04-25 14:22 | 47.92000 | -122.28048 | 577 ft | 4 kts | 360° |
| 2026-04-25 14:23 | 47.92001 | -122.28048 | 572 ft | 0 kts | 360° |
| 2026-04-25 14:23 | 47.92014 | -122.28048 | 577 ft | 8 kts | 360° |
| 2026-04-25 14:23 | 47.92043 | -122.28000 | 576 ft | 5 kts | 81° |
| 2026-04-25 14:24 | 47.92045 | -122.27968 | 576 ft | 5 kts | 86° |
| 2026-04-25 14:24 | 47.92046 | -122.27919 | 577 ft | 2 kts | 88° |
| 2026-04-25 14:24 | 47.92047 | -122.27894 | 577 ft | 3 kts | 88° |
| 2026-04-25 14:24 | 47.92047 | -122.27863 | 577 ft | 3 kts | 88° |
| 2026-04-25 14:25 | 47.92065 | -122.27840 | 578 ft | 4 kts | 21° |
| 2026-04-25 14:25 | 47.92092 | -122.27835 | 573 ft | 4 kts | 2° |
| 2026-04-25 14:25 | 47.92112 | -122.27834 | 573 ft | 2 kts | 4° |
| 2026-04-25 14:25 | 47.92119 | -122.27834 | 576 ft | 0 kts | 359° |